createdAt,value
2018-09-05T00:01:42.575Z,17.00
2018-09-05T00:04:10.282Z,17.00
2018-09-05T00:06:37.904Z,17.00
2018-09-05T00:14:01.488Z,16.90
2018-09-05T00:16:29.170Z,16.90
2018-09-05T00:18:56.839Z,16.90
2018-09-05T00:21:24.475Z,16.80
2018-09-05T00:26:19.696Z,16.80
2018-09-05T00:28:47.346Z,16.70
2018-09-05T00:31:14.986Z,16.70
2018-09-05T00:36:10.214Z,16.70
2018-09-05T00:41:05.493Z,16.70
2018-09-05T00:43:33.191Z,16.60
2018-09-05T00:53:23.667Z,16.60
2018-09-05T00:55:51.314Z,16.60
2018-09-05T01:00:46.817Z,16.50
2018-09-05T01:03:14.471Z,16.50
2018-09-05T01:05:42.184Z,16.50
2018-09-05T01:08:10.290Z,16.40
2018-09-05T01:10:38.075Z,16.40
2018-09-05T01:13:05.727Z,16.40
2018-09-05T01:15:33.429Z,16.40
2018-09-05T01:20:29.128Z,16.40
2018-09-05T01:22:56.786Z,16.40
2018-09-05T01:27:52.097Z,16.40
2018-09-05T01:30:20.351Z,16.40
2018-09-05T01:32:47.991Z,16.40
2018-09-05T01:35:15.747Z,16.40
2018-09-05T01:37:43.508Z,16.40
2018-09-05T01:40:11.145Z,16.30
2018-09-05T01:42:38.846Z,16.30
2018-09-05T01:45:06.545Z,16.30
2018-09-05T01:47:34.170Z,16.30
2018-09-05T01:50:01.802Z,16.30
2018-09-05T01:52:29.424Z,16.30
2018-09-05T01:54:57.084Z,16.30
2018-09-05T01:57:24.715Z,16.30
2018-09-05T01:59:52.358Z,16.30
2018-09-05T02:02:20.086Z,16.20
2018-09-05T02:04:47.714Z,16.20
2018-09-05T02:07:15.377Z,16.20
2018-09-05T02:09:43.127Z,16.20
2018-09-05T02:12:10.899Z,16.20
2018-09-05T02:14:38.587Z,16.10
2018-09-05T02:17:06.272Z,16.10
2018-09-05T02:19:33.982Z,16.10
2018-09-05T02:22:01.623Z,16.10
2018-09-05T02:24:29.257Z,16.10
2018-09-05T02:26:56.959Z,16.10
2018-09-05T02:29:24.571Z,16.10
2018-09-05T02:31:52.239Z,16.10
2018-09-05T02:34:19.906Z,16.10
2018-09-05T02:36:47.564Z,16.10
2018-09-05T02:39:15.199Z,16.00
2018-09-05T02:41:42.820Z,16.00
2018-09-05T02:44:16.126Z,16.00
2018-09-05T02:46:43.791Z,16.00
2018-09-05T02:49:11.403Z,16.00
2018-09-05T02:51:39.034Z,16.10
2018-09-05T02:54:06.661Z,16.00
2018-09-05T02:56:34.332Z,16.10
2018-09-05T02:59:02.015Z,16.00
2018-09-05T03:01:29.666Z,15.90
2018-09-05T03:03:57.362Z,16.00
2018-09-05T03:06:25.014Z,15.90
2018-09-05T03:08:52.663Z,15.90
2018-09-05T03:11:20.314Z,15.90
2018-09-05T03:13:47.989Z,15.90
2018-09-05T03:16:15.621Z,16.00
2018-09-05T03:18:43.298Z,16.00
2018-09-05T03:21:10.955Z,16.10
2018-09-05T03:23:38.635Z,16.20
2018-09-05T03:26:06.355Z,16.20
2018-09-05T03:28:33.972Z,16.20
2018-09-05T03:31:01.639Z,16.20
2018-09-05T03:33:29.290Z,16.30
2018-09-05T03:35:56.941Z,16.20
2018-09-05T03:38:24.596Z,16.20
2018-09-05T03:40:52.226Z,16.20
2018-09-05T03:43:19.962Z,16.20
2018-09-05T03:45:47.591Z,16.20
2018-09-05T03:48:15.291Z,16.20
2018-09-05T03:50:42.967Z,16.20
2018-09-05T03:53:10.642Z,16.20
2018-09-05T03:55:38.338Z,16.20
2018-09-05T03:58:05.999Z,16.10
2018-09-05T04:00:34.440Z,16.10
2018-09-05T04:03:03.238Z,16.10
2018-09-05T04:05:30.858Z,16.10
2018-09-05T04:07:58.480Z,16.10
2018-09-05T04:10:26.192Z,16.00
2018-09-05T04:12:53.805Z,16.00
2018-09-05T04:15:21.451Z,16.00
2018-09-05T04:17:49.069Z,16.00
2018-09-05T04:20:16.720Z,16.00
2018-09-05T04:22:44.339Z,15.90
2018-09-05T04:25:11.987Z,15.90
2018-09-05T04:27:39.646Z,15.90
2018-09-05T04:30:07.369Z,15.90
2018-09-05T04:32:35.001Z,15.90
2018-09-05T04:35:02.643Z,15.90
2018-09-05T04:37:36.784Z,15.90
2018-09-05T04:40:04.526Z,15.90
2018-09-05T04:42:32.170Z,15.90
2018-09-05T04:44:59.819Z,15.90
2018-09-05T04:47:27.394Z,15.90
2018-09-05T04:49:55.003Z,15.80
2018-09-05T04:52:22.604Z,15.90
2018-09-05T04:54:50.213Z,15.90
2018-09-05T04:57:17.820Z,15.90
2018-09-05T04:59:45.588Z,15.80
2018-09-05T05:02:13.266Z,15.90
2018-09-05T05:04:40.907Z,15.90
2018-09-05T05:07:08.536Z,15.80
2018-09-05T05:09:36.155Z,15.80
2018-09-05T05:12:03.797Z,16.00
2018-09-05T05:14:31.430Z,16.30
2018-09-05T05:16:59.082Z,16.60
2018-09-05T05:19:26.722Z,17.10
2018-09-05T05:21:54.395Z,17.50
2018-09-05T05:24:22.017Z,18.00
2018-09-05T05:26:49.698Z,18.50
2018-09-05T05:29:17.403Z,19.00
2018-09-05T05:31:45.075Z,19.10
2018-09-05T05:34:12.834Z,18.70
2018-09-05T05:36:40.432Z,18.70
2018-09-05T05:39:09.588Z,19.70
2018-09-05T05:41:37.214Z,20.70
2018-09-05T05:44:04.956Z,20.80
2018-09-05T05:46:32.912Z,21.10
2018-09-05T05:49:00.551Z,22.00
2018-09-05T05:51:28.262Z,22.70
2018-09-05T05:53:55.903Z,23.30
2018-09-05T05:56:23.545Z,24.10
2018-09-05T05:58:51.147Z,25.00
2018-09-05T06:01:18.839Z,25.90
2018-09-05T06:03:46.421Z,26.60
2018-09-05T06:06:14.105Z,27.00
2018-09-05T06:08:41.685Z,27.60
2018-09-05T06:11:09.306Z,27.20
2018-09-05T06:13:36.950Z,27.10
2018-09-05T06:16:04.624Z,26.80
2018-09-05T06:18:32.217Z,27.30
2018-09-05T06:20:59.923Z,27.60
2018-09-05T06:23:27.530Z,28.60
2018-09-05T06:25:55.146Z,29.80
2018-09-05T06:28:22.787Z,30.50
2018-09-05T06:30:50.532Z,31.40
2018-09-05T06:33:18.163Z,32.00
2018-09-05T06:35:45.838Z,32.90
2018-09-05T06:41:34.404Z,33.90
2018-09-05T06:44:02.011Z,34.50
2018-09-05T06:46:29.853Z,34.80
2018-09-05T06:48:57.490Z,35.50
2018-09-05T06:51:25.188Z,36.10
2018-09-05T06:53:52.838Z,36.50
2018-09-05T06:56:20.491Z,37.20
2018-09-05T06:58:48.183Z,37.30
2018-09-05T07:01:16.036Z,37.90
2018-09-05T07:03:43.950Z,38.00
2018-09-05T07:06:11.537Z,38.70
2018-09-05T07:08:39.269Z,38.60
2018-09-05T07:11:06.925Z,39.00
2018-09-05T07:13:34.548Z,39.60
2018-09-05T07:16:02.289Z,39.50
2018-09-05T07:18:30.078Z,40.20
2018-09-05T07:21:05.682Z,40.30
2018-09-05T07:23:25.422Z,40.50
2018-09-05T07:25:53.056Z,40.80
2018-09-05T07:28:20.805Z,41.10
2018-09-05T07:30:48.531Z,41.20
2018-09-05T07:33:16.238Z,41.20
2018-09-05T07:35:43.927Z,41.10
2018-09-05T07:38:11.570Z,41.50
2018-09-05T07:40:39.422Z,41.60
2018-09-05T07:43:07.090Z,42.00
2018-09-05T07:45:34.801Z,41.80
2018-09-05T07:48:02.952Z,42.10
2018-09-05T07:50:30.682Z,42.10
2018-09-05T07:52:58.445Z,42.00
2018-09-05T07:55:26.131Z,42.00
2018-09-05T07:57:53.769Z,41.80
2018-09-05T08:00:21.519Z,41.90
2018-09-05T08:02:49.208Z,41.50
2018-09-05T08:05:16.868Z,42.00
2018-09-05T08:07:44.540Z,41.90
2018-09-05T08:10:12.163Z,41.70
2018-09-05T08:12:39.795Z,41.00
2018-09-05T08:15:07.491Z,36.30
2018-09-05T08:20:02.749Z,32.80
2018-09-05T08:22:30.409Z,31.80
2018-09-05T08:24:58.114Z,31.40
2018-09-05T08:29:53.462Z,30.10
2018-09-05T08:32:21.343Z,29.90
2018-09-05T08:34:49.163Z,29.70
2018-09-05T08:37:16.951Z,29.40
2018-09-05T08:39:44.458Z,29.00
2018-09-05T08:42:12.280Z,28.80
2018-09-05T08:47:07.571Z,28.70
2018-09-05T08:56:58.134Z,28.20
2018-09-05T08:59:25.791Z,28.00
2018-09-05T09:01:53.460Z,28.00
2018-09-05T09:04:21.146Z,28.20
2018-09-05T09:06:48.845Z,28.20
2018-09-05T09:09:16.507Z,28.20
2018-09-05T09:14:11.686Z,28.10
2018-09-05T09:16:39.369Z,28.00
2018-09-05T09:19:07.111Z,28.00
2018-09-05T09:21:34.734Z,28.00
2018-09-05T09:24:02.419Z,28.00
2018-09-05T09:26:30.031Z,27.80
2018-09-05T09:28:57.946Z,27.80
2018-09-05T09:31:25.578Z,27.60
2018-09-05T09:33:53.190Z,27.70
2018-09-05T09:36:20.778Z,27.50
2018-09-05T09:38:48.382Z,27.30
2018-09-05T09:41:16.123Z,27.40
2018-09-05T09:43:43.779Z,27.40
2018-09-05T09:46:11.438Z,27.30
2018-09-05T09:48:39.207Z,27.30
2018-09-05T09:51:06.903Z,27.10
2018-09-05T09:53:34.523Z,27.10
2018-09-05T09:56:02.183Z,27.30
2018-09-05T09:58:29.807Z,27.30
2018-09-05T10:01:03.003Z,27.20
2018-09-05T10:03:36.466Z,27.20
2018-09-05T10:06:09.588Z,27.00
2018-09-05T10:10:44.843Z,26.90
2018-09-05T10:13:16.998Z,26.80
2018-09-05T10:15:50.270Z,26.90
2018-09-05T10:18:23.482Z,27.00
2018-09-05T10:20:51.218Z,27.10
2018-09-05T10:23:18.878Z,27.10
2018-09-05T10:25:46.550Z,26.90
2018-09-05T10:28:14.754Z,26.50
2018-09-05T10:33:09.938Z,26.60
2018-09-05T10:35:37.591Z,26.60
2018-09-05T10:38:05.262Z,26.70
2018-09-05T10:40:32.915Z,26.60
2018-09-05T10:43:00.546Z,26.60
2018-09-05T10:45:28.178Z,26.50
2018-09-05T10:47:55.972Z,26.30
2018-09-05T10:50:23.676Z,26.40
2018-09-05T10:52:51.314Z,26.30
2018-09-05T11:00:14.038Z,25.80
2018-09-05T11:17:27.010Z,25.40
2018-09-05T11:27:17.394Z,25.40
2018-09-05T11:29:45.032Z,25.50
2018-09-05T11:34:40.288Z,25.50
2018-09-05T11:42:04.690Z,25.50
2018-09-05T12:01:46.596Z,25.90
2018-09-05T12:11:39.022Z,26.20
2018-09-05T12:14:12.435Z,26.10
2018-09-05T12:29:01.119Z,26.10
2018-09-05T12:36:24.417Z,25.90
2018-09-05T12:38:52.754Z,26.00
2018-09-05T12:41:20.416Z,26.00
2018-09-05T12:43:48.172Z,26.10
2018-09-05T12:46:16.219Z,26.40
2018-09-05T12:51:12.016Z,25.90
2018-09-05T13:01:02.624Z,26.30
2018-09-05T13:18:16.094Z,26.10
2018-09-05T13:20:43.830Z,26.10
2018-09-05T13:30:34.092Z,26.10
2018-09-05T13:37:56.986Z,26.30
2018-09-05T14:05:00.138Z,26.40
2018-09-05T14:14:50.450Z,26.80
2018-09-05T14:17:18.082Z,26.90
2018-09-05T14:19:45.715Z,27.00
2018-09-05T14:27:08.483Z,27.00
2018-09-05T14:32:03.689Z,27.10
2018-09-05T14:36:58.870Z,27.10
2018-09-05T14:39:26.524Z,27.10
2018-09-05T14:41:54.201Z,27.20
2018-09-05T14:44:21.835Z,27.10
2018-09-05T14:46:49.459Z,27.10
2018-09-05T14:49:17.075Z,27.10
2018-09-05T14:59:07.534Z,27.00
2018-09-05T15:11:25.442Z,26.50
2018-09-05T15:13:53.062Z,26.40
2018-09-05T15:18:48.320Z,26.30
2018-09-05T15:28:38.583Z,26.50
2018-09-05T15:33:33.727Z,26.70
2018-09-05T15:40:56.441Z,26.90
2018-09-05T15:45:51.778Z,26.80
2018-09-05T15:53:14.479Z,26.70
2018-09-05T15:55:42.102Z,26.60
2018-09-05T16:05:33.248Z,26.20
2018-09-05T16:12:56.047Z,25.80
2018-09-05T16:17:51.202Z,25.70
2018-09-05T16:22:46.427Z,25.60
2018-09-05T16:25:14.065Z,25.50
2018-09-05T16:27:41.707Z,25.40
2018-09-05T16:57:13.287Z,24.60
2018-09-05T17:07:03.473Z,24.40
2018-09-05T17:19:21.068Z,24.10
2018-09-05T17:31:39.226Z,23.80
2018-09-05T17:39:02.489Z,23.50
2018-09-05T17:43:57.590Z,23.30
2018-09-05T17:48:52.707Z,23.10
2018-09-05T17:51:20.310Z,23.00
2018-09-05T18:01:13.815Z,22.80
2018-09-05T18:11:04.170Z,22.60
2018-09-05T18:15:59.579Z,22.40
2018-09-05T18:18:27.290Z,22.30
2018-09-05T18:20:54.914Z,22.20
2018-09-05T18:23:22.542Z,22.10
2018-09-05T18:25:50.248Z,22.10
2018-09-05T18:30:45.712Z,21.90
2018-09-05T18:33:13.351Z,21.90
2018-09-05T18:35:41.016Z,21.80
2018-09-05T18:38:08.774Z,21.70
2018-09-05T18:45:31.929Z,21.60
2018-09-05T18:47:59.695Z,21.50
2018-09-05T18:50:27.457Z,21.50
2018-09-05T18:53:00.733Z,21.40
2018-09-05T18:55:28.383Z,21.40
2018-09-05T19:00:23.682Z,21.40
2018-09-05T19:02:51.303Z,21.30
2018-09-05T19:05:19.108Z,21.20
2018-09-05T19:10:14.729Z,21.20
2018-09-05T19:12:42.362Z,21.10
2018-09-05T19:15:10.020Z,21.10
2018-09-05T19:17:37.631Z,21.00
2018-09-05T19:25:00.295Z,20.90
2018-09-05T19:29:55.748Z,21.00
2018-09-05T19:32:23.346Z,21.00
2018-09-05T19:54:31.305Z,20.50
2018-09-05T19:56:58.928Z,20.40
2018-09-05T19:59:33.167Z,20.40
2018-09-05T20:04:28.338Z,20.20
2018-09-05T20:06:55.937Z,20.20
2018-09-05T20:16:46.420Z,20.00
2018-09-05T20:19:14.151Z,20.00
2018-09-05T20:24:09.330Z,20.00
2018-09-05T20:26:39.194Z,20.00
2018-09-05T20:29:07.046Z,19.90
2018-09-05T20:31:34.687Z,19.90
2018-09-05T20:36:30.451Z,19.80
2018-09-05T20:41:25.682Z,19.70
2018-09-05T20:43:53.325Z,19.70
2018-09-05T20:46:21.215Z,19.70
2018-09-05T20:53:43.960Z,19.70
2018-09-05T21:01:06.838Z,19.60
2018-09-05T21:03:34.499Z,19.50
2018-09-05T21:06:03.126Z,19.50
2018-09-05T21:08:30.813Z,19.50
2018-09-05T21:10:58.489Z,19.40
2018-09-05T21:13:26.211Z,19.30
2018-09-05T21:15:53.954Z,19.30
2018-09-05T21:18:21.663Z,19.30
2018-09-05T21:20:49.435Z,19.30
2018-09-05T21:25:44.632Z,19.20
2018-09-05T21:28:12.295Z,19.10
2018-09-05T21:30:40.020Z,19.20
2018-09-05T21:33:07.702Z,19.20
2018-09-05T21:35:35.379Z,19.10
2018-09-05T21:40:30.681Z,19.10
2018-09-05T21:42:58.294Z,19.10
2018-09-05T21:45:26.029Z,19.00
2018-09-05T21:55:16.943Z,18.90
2018-09-05T22:02:40.449Z,18.80
2018-09-05T22:07:35.799Z,18.80
2018-09-05T22:10:03.470Z,18.70
2018-09-05T22:12:31.162Z,18.70
2018-09-05T22:14:58.849Z,18.70
2018-09-05T22:17:26.536Z,18.70
2018-09-05T22:19:54.154Z,18.70
2018-09-05T22:22:21.816Z,18.60
2018-09-05T22:32:12.082Z,18.60
2018-09-05T22:34:40.406Z,18.50
2018-09-05T22:44:41.867Z,18.50
2018-09-05T22:54:47.589Z,18.40
2018-09-05T22:59:30.409Z,18.40
2018-09-05T23:04:16.649Z,18.30
2018-09-05T23:12:01.088Z,18.20
2018-09-05T23:14:40.440Z,18.20
2018-09-05T23:17:19.695Z,18.20
2018-09-05T23:22:21.532Z,18.20
2018-09-05T23:29:44.203Z,18.20
2018-09-05T23:32:11.864Z,18.20
2018-09-05T23:37:07.080Z,18.10
2018-09-05T23:39:34.788Z,18.00
2018-09-05T23:49:25.140Z,18.00
2018-09-05T23:59:15.616Z,17.90
